首页
METAR-TAF:

METAR-TAF

机场 :

图兹拉国际机场

图兹拉, 波斯尼亚和黑塞哥维那

纬度: 44-33N, 经度: 018-42E, 海拔: 306米

当前天气观测

该预报发布于11小时和8分钟前的11:00 UTC
风速8节,风向西,在西南之间变化
温度 17°C
湿度 36%
气压 1011 hPa
能见度10公里或以上
少量云层高于3500英尺, 塔状积云.
散云层高于4000英尺

METAR: LQTZ 291100Z 27008KT 230V350 9999 FEW035TCU SCT040 17/02 Q1011

时间: 00:08 (22:08 UTC)

预报

该预报发布于11小时和8分钟前的11:00 UTC
预报有效从29日的 12点(UTC)到 30日的 12点(UTC)
风速6节,风向西
能见度10公里或以上
1500米以下无云,无积雨云
短暂存在
从 29日的 12点(UTC)到 29日的 18点(UTC)
风速10节,风向北转西北
少量云层高于3300英尺, 塔状积云.
散云层高于4000英尺
阵雨
成为
从 30日的 10点(UTC)到 30日的 12点(UTC)
风速10节,风向

TAF: LQTZ 291100Z 2912/3012 28006KT CAVOK TX18/2913Z TN01/3006Z TEMPO 2912/2918 34010KT SHRA FEW033TCU SCT040 BECMG 3010/3012 01010KT

超过4000个机场的气象观测和天气预报(METAR&TAF报告)。

可查询的气象台以黄色和红色小点在地图上表示。

将鼠标移到小点上方,可查看气象台名称。

然后点击查看天气观测和预报。

如需切换地图:点击带黑十字的绿色按钮放大地图;点击带横线的绿色按钮缩小地图;或者点击绿色箭头查看邻近地区的地图。


METAR-TAF: